Time;durP1;ratioP1;P1;durP2;ratioP2;P2;SDS_P1;SDS_P2;PMS_P1;PMS_P2;Temp;Humidity;BMP_temperature;BMP_pressure;BME280_temperature;BME280_humidity;BME280_pressure;Samples;Min_cycle;Max_cycle;Signal;HPM_P1;HPM_P2
2022/08/25 00:01:10;;;;;;;6.93;1.90;;;23.80;72.00;;;;;;5148110;27;45109;-74
2022/08/25 00:03:37;;;;;;;6.03;1.60;;;23.90;70.90;;;;;;5134252;27;45283;-75
2022/08/25 00:06:05;;;;;;;8.90;1.95;;;23.80;71.00;;;;;;5144861;27;45302;-74
2022/08/25 00:08:33;;;;;;;5.63;1.95;;;23.80;70.70;;;;;;5168802;27;47091;-74
2022/08/25 00:11:00;;;;;;;3.33;1.60;;;23.80;70.00;;;;;;5149167;27;45211;-75
2022/08/25 00:13:29;;;;;;;2.45;1.60;;;23.80;69.30;;;;;;5135416;27;45353;-74
2022/08/25 00:15:56;;;;;;;7.05;1.60;;;23.80;70.70;;;;;;5137701;27;45206;-74
2022/08/25 00:18:23;;;;;;;5.18;1.50;;;23.80;69.70;;;;;;5147390;27;46311;-74
2022/08/25 00:20:50;;;;;;;3.03;1.67;;;23.80;70.50;;;;;;5141142;27;45285;-74
2022/08/25 00:23:18;;;;;;;2.72;1.70;;;23.80;70.30;;;;;;5165843;27;45413;-74
2022/08/25 00:25:44;;;;;;;2.53;1.77;;;23.80;68.90;;;;;;5168113;27;45382;-75
2022/08/25 00:28:12;;;;;;;3.65;1.70;;;23.70;69.10;;;;;;5136382;27;47662;-74
2022/08/25 00:30:40;;;;;;;3.88;1.75;;;23.80;69.80;;;;;;5137106;27;45141;-74
2022/08/25 00:33:07;;;;;;;3.13;1.42;;;23.70;69.60;;;;;;5168437;27;45303;-74
2022/08/25 00:35:34;;;;;;;4.30;1.60;;;23.80;69.30;;;;;;5168523;27;45270;-75
2022/08/25 00:38:01;;;;;;;4.55;1.73;;;23.70;69.90;;;;;;5144759;27;46482;-74
2022/08/25 00:40:29;;;;;;;4.38;1.65;;;23.70;69.20;;;;;;5126411;27;45232;-74
2022/08/25 00:42:56;;;;;;;3.03;1.50;;;23.70;70.00;;;;;;5141823;27;45365;-74
2022/08/25 00:45:24;;;;;;;2.72;1.52;;;23.70;69.40;;;;;;5167927;27;45278;-74
2022/08/25 00:47:52;;;;;;;3.78;1.58;;;23.60;68.90;;;;;;5168081;27;46422;-74
2022/08/25 00:50:21;;;;;;;2.13;1.42;;;23.60;69.10;;;;;;5165344;27;45308;-74
2022/08/25 00:52:52;;;;;;;2.55;1.70;;;23.60;68.90;;;;;;5153902;27;45273;-74
2022/08/25 00:55:24;;;;;;;3.15;1.60;;;23.60;68.50;;;;;;5165541;27;45222;-74
2022/08/25 00:57:56;;;;;;;3.97;1.52;;;23.60;68.80;;;;;;5128626;27;45437;-74
2022/08/25 01:00:26;;;;;;;2.88;1.60;;;23.60;69.20;;;;;;5126058;27;45227;-74
2022/08/25 01:02:55;;;;;;;3.28;1.40;;;23.60;69.20;;;;;;5125677;27;45345;-74
2022/08/25 01:05:22;;;;;;;5.28;1.80;;;23.60;68.90;;;;;;5150638;27;45591;-74
2022/08/25 01:07:50;;;;;;;5.57;1.73;;;23.60;68.70;;;;;;5155891;27;47748;-75
2022/08/25 01:10:17;;;;;;;6.32;1.65;;;23.60;68.50;;;;;;5151936;27;45190;-75
2022/08/25 01:12:44;;;;;;;2.50;1.38;;;23.60;68.20;;;;;;5164609;27;45192;-74
2022/08/25 01:15:13;;;;;;;4.70;1.77;;;23.60;68.10;;;;;;5146985;27;45642;-74
2022/08/25 01:17:46;;;;;;;2.50;1.35;;;23.60;68.50;;;;;;5150037;27;45427;-75
2022/08/25 01:20:16;;;;;;;6.15;2.03;;;23.60;68.90;;;;;;5149466;27;45312;-75
2022/08/25 01:22:45;;;;;;;5.72;2.00;;;23.60;68.50;;;;;;5159091;27;45242;-74
2022/08/25 01:25:24;;;;;;;2.38;1.30;;;23.60;68.90;;;;;;5131867;27;45403;-74
2022/08/25 01:27:51;;;;;;;2.80;1.60;;;23.60;68.30;;;;;;5130783;27;47069;-75
2022/08/25 01:30:18;;;;;;;2.63;1.50;;;23.60;68.50;;;;;;5130183;27;45274;-74
2022/08/25 01:32:45;;;;;;;3.85;1.40;;;23.70;68.20;;;;;;5152874;27;45339;-74
2022/08/25 01:35:12;;;;;;;2.30;1.50;;;23.60;67.50;;;;;;5137270;27;45319;-74
2022/08/25 01:37:39;;;;;;;2.78;1.33;;;23.60;66.90;;;;;;5132035;27;47238;-74
2022/08/25 01:40:09;;;;;;;2.53;1.25;;;23.60;66.60;;;;;;5146860;27;45330;-74
2022/08/25 01:42:46;;;;;;;2.42;1.38;;;23.70;68.80;;;;;;5154114;27;45240;-74
2022/08/25 01:45:13;;;;;;;3.15;1.30;;;23.60;67.50;;;;;;5134881;27;45493;-74
2022/08/25 01:47:40;;;;;;;5.35;1.50;;;23.60;68.10;;;;;;5128507;27;48401;-74
2022/08/25 01:50:08;;;;;;;1.85;1.35;;;23.60;67.40;;;;;;5146988;27;45259;-74
2022/08/25 01:52:43;;;;;;;6.22;1.40;;;23.60;66.90;;;;;;5149440;27;45213;-74
2022/08/25 01:55:12;;;;;;;3.22;1.60;;;23.50;69.20;;;;;;5163059;27;45236;-74
2022/08/25 01:57:38;;;;;;;3.13;1.50;;;23.50;68.10;;;;;;5128381;27;45435;-74
2022/08/25 02:00:06;;;;;;;5.43;1.50;;;23.50;67.60;;;;;;5128327;27;45820;-74
2022/08/25 02:02:33;;;;;;;2.17;1.25;;;23.50;67.50;;;;;;5128907;27;45192;-74
2022/08/25 02:04:59;;;;;;;1.63;1.48;;;23.40;67.80;;;;;;5154388;27;45199;-74
2022/08/25 02:07:26;;;;;;;5.30;1.65;;;23.40;68.70;;;;;;5155281;27;46255;-75
2022/08/25 02:09:53;;;;;;;3.78;1.45;;;23.40;67.90;;;;;;5137103;27;45371;-74
2022/08/25 02:12:21;;;;;;;2.75;1.48;;;23.40;69.20;;;;;;5128351;27;45265;-74
2022/08/25 02:14:48;;;;;;;4.50;1.77;;;23.40;68.60;;;;;;5150150;27;45422;-74
2022/08/25 02:17:16;;;;;;;3.30;1.60;;;23.50;69.60;;;;;;5159686;27;46815;-74
2022/08/25 02:19:42;;;;;;;4.22;1.42;;;23.40;69.70;;;;;;5143284;27;45643;-74
2022/08/25 02:22:10;;;;;;;5.68;1.42;;;23.50;69.80;;;;;;5142690;27;45440;-74
2022/08/25 02:24:37;;;;;;;4.35;1.50;;;23.40;70.10;;;;;;5145987;27;45283;-75
2022/08/25 02:27:04;;;;;;;2.60;1.55;;;23.30;69.90;;;;;;5150126;27;46371;-74
2022/08/25 02:29:32;;;;;;;4.18;1.70;;;23.20;70.20;;;;;;5137999;27;45281;-74
2022/08/25 02:31:59;;;;;;;4.00;1.60;;;23.20;70.40;;;;;;5148876;27;45216;-74
2022/08/25 02:34:26;;;;;;;4.28;2.13;;;23.20;69.60;;;;;;5134237;27;45434;-74
2022/08/25 02:36:53;;;;;;;2.60;1.88;;;23.20;69.50;;;;;;5160077;27;46744;-74
2022/08/25 02:39:20;;;;;;;2.15;1.48;;;23.20;69.50;;;;;;5169481;27;45283;-74
2022/08/25 02:41:46;;;;;;;3.85;1.33;;;23.20;69.70;;;;;;5149227;27;45204;-74
2022/08/25 02:44:13;;;;;;;3.08;1.77;;;23.20;69.50;;;;;;5169403;27;45605;-74
2022/08/25 02:46:41;;;;;;;2.20;1.50;;;23.20;69.30;;;;;;5155420;27;47684;-74
2022/08/25 02:49:08;;;;;;;3.72;1.50;;;23.20;69.20;;;;;;5137732;27;45316;-74
2022/08/25 02:51:36;;;;;;;2.92;1.55;;;23.20;69.30;;;;;;5127559;27;45259;-74
2022/08/25 02:54:04;;;;;;;4.35;1.83;;;23.20;69.50;;;;;;5128388;27;45424;-75
2022/08/25 02:56:32;;;;;;;2.10;1.70;;;23.10;70.60;;;;;;5159362;27;47093;-74
2022/08/25 02:59:00;;;;;;;5.88;1.75;;;23.00;70.70;;;;;;5132424;27;45586;-74
2022/08/25 03:01:28;;;;;;;2.75;1.67;;;23.10;70.10;;;;;;5129156;27;45348;-74
2022/08/25 03:03:57;;;;;;;6.35;1.50;;;23.00;70.90;;;;;;5151162;27;45604;-74
2022/08/25 03:06:30;;;;;;;5.40;1.83;;;23.10;70.60;;;;;;5127595;27;46618;-75
2022/08/25 03:08:57;;;;;;;3.03;1.50;;;23.10;70.80;;;;;;5127382;27;45230;-74
2022/08/25 03:11:25;;;;;;;4.95;1.75;;;23.00;70.80;;;;;;5137608;27;45222;-74
2022/08/25 03:13:52;;;;;;;3.95;1.52;;;23.10;71.20;;;;;;5141571;27;45597;-74
2022/08/25 03:16:19;;;;;;;1.73;1.52;;;23.10;70.80;;;;;;5147235;27;46837;-74
2022/08/25 03:18:48;;;;;;;3.85;1.45;;;23.10;70.70;;;;;;5127344;27;45349;-74
2022/08/25 03:21:17;;;;;;;7.93;1.52;;;23.10;70.50;;;;;;5127245;27;45268;-74
2022/08/25 03:23:45;;;;;;;2.63;1.50;;;23.00;70.80;;;;;;5127258;27;45470;-74
2022/08/25 03:28:56;;;;;;;5.47;1.63;;;23.00;71.10;;;;;;5162581;27;45421;-74
2022/08/25 03:31:24;;;;;;;3.15;1.63;;;23.00;70.00;;;;;;5148219;27;45380;-74
2022/08/25 03:33:52;;;;;;;1.98;1.52;;;23.00;70.80;;;;;;5156767;27;45414;-74
2022/08/25 03:36:20;;;;;;;2.63;1.55;;;23.00;70.60;;;;;;5135847;27;48054;-74
2022/08/25 03:38:47;;;;;;;3.08;1.50;;;23.00;70.40;;;;;;5134787;27;45789;-75
2022/08/25 03:41:17;;;;;;;3.55;1.50;;;23.00;70.30;;;;;;5147951;27;45279;-74
2022/08/25 03:43:44;;;;;;;3.40;1.50;;;23.00;71.20;;;;;;5157036;27;45266;-74
2022/08/25 03:46:18;;;;;;;5.18;1.25;;;23.00;70.50;;;;;;5161207;27;47782;-74
2022/08/25 03:48:44;;;;;;;4.28;1.42;;;23.00;70.60;;;;;;5135611;27;46137;-74
2022/08/25 03:51:12;;;;;;;3.30;1.58;;;23.00;70.90;;;;;;5148443;27;45273;-74
2022/08/25 03:53:40;;;;;;;5.63;1.80;;;23.00;70.20;;;;;;5168056;27;45346;-74
2022/08/25 03:56:08;;;;;;;5.65;1.90;;;22.30;68.70;;;;;;5165689;27;45293;-74
2022/08/25 03:58:35;;;;;;;7.00;1.90;;;21.50;71.20;;;;;;5157450;27;45362;-74
2022/08/25 04:01:01;;;;;;;6.88;2.00;;;21.40;72.10;;;;;;5132508;27;45518;-75
2022/08/25 04:03:28;;;;;;;6.63;1.90;;;21.50;71.90;;;;;;5143943;27;45421;-74
2022/08/25 04:05:55;;;;;;;4.88;2.00;;;21.40;72.30;;;;;;5133842;27;48904;-74
2022/08/25 04:08:22;;;;;;;3.75;1.60;;;21.50;71.90;;;;;;5148716;27;45261;-74
2022/08/25 04:10:50;;;;;;;6.45;2.72;;;21.50;72.30;;;;;;5127098;27;45372;-74
2022/08/25 04:13:17;;;;;;;7.00;2.83;;;20.70;95.60;;;;;;5137874;27;45295;-74
2022/08/25 04:15:44;;;;;;;9.38;3.15;;;20.20;98.10;;;;;;5138389;27;45401;-74
2022/08/25 04:18:12;;;;;;;8.43;2.97;;;20.10;97.00;;;;;;5154760;27;45487;-74
2022/08/25 04:20:40;;;;;;;4.90;2.70;;;20.10;95.70;;;;;;5157691;27;45255;-74
2022/08/25 04:23:07;;;;;;;5.57;2.23;;;20.50;93.70;;;;;;5149304;27;45395;-75
2022/08/25 04:25:34;;;;;;;5.03;2.38;;;20.60;92.80;;;;;;5151075;27;47338;-74
2022/08/25 04:28:02;;;;;;;7.63;2.25;;;20.30;92.70;;;;;;5126791;27;45309;-74
2022/08/25 04:30:29;;;;;;;4.97;2.20;;;20.30;91.60;;;;;;5129438;27;45300;-74
2022/08/25 04:32:55;;;;;;;6.15;2.60;;;20.50;87.50;;;;;;5143846;27;45562;-74
2022/08/25 04:35:23;;;;;;;5.30;2.30;;;19.90;91.00;;;;;;5130626;27;47514;-74
2022/08/25 04:37:49;;;;;;;4.38;2.15;;;19.90;89.10;;;;;;5159604;27;45402;-74
2022/08/25 04:40:16;;;;;;;6.78;2.20;;;19.90;85.70;;;;;;5145385;27;45254;-74
2022/08/25 04:42:44;;;;;;;3.95;1.83;;;20.00;86.10;;;;;;5158727;27;45273;-74
2022/08/25 04:45:12;;;;;;;3.97;1.73;;;19.90;84.40;;;;;;5159466;27;47279;-74
2022/08/25 04:47:39;;;;;;;2.92;2.03;;;20.00;84.20;;;;;;5141102;27;46130;-74
2022/08/25 04:50:07;;;;;;;8.80;3.00;;;19.60;85.10;;;;;;5149517;27;45213;-75
2022/08/25 04:52:34;;;;;;;5.38;2.53;;;19.30;87.00;;;;;;5137417;27;45553;-75
2022/08/25 04:55:01;;;;;;;3.22;2.15;;;19.20;90.90;;;;;;5137604;27;46392;-75
2022/08/25 04:57:27;;;;;;;4.72;2.30;;;20.40;89.30;;;;;;5142205;27;45129;-74
2022/08/25 04:59:55;;;;;;;5.45;2.30;;;21.10;84.60;;;;;;5172331;27;45289;-74
2022/08/25 05:02:24;;;;;;;4.28;2.22;;;21.50;81.70;;;;;;5167295;27;45375;-74
2022/08/25 05:04:51;;;;;;;5.38;2.05;;;21.70;81.50;;;;;;5141233;27;45425;-74
2022/08/25 05:07:18;;;;;;;5.00;2.15;;;21.80;81.00;;;;;;5139168;27;45377;-74
2022/08/25 05:09:45;;;;;;;4.50;2.17;;;21.90;80.80;;;;;;5150051;27;45353;-74
2022/08/25 05:12:12;;;;;;;5.57;2.33;;;22.00;80.70;;;;;;5152085;27;45294;-74
2022/08/25 05:14:39;;;;;;;5.95;2.25;;;22.10;80.90;;;;;;5158328;27;45246;-75
2022/08/25 05:17:06;;;;;;;2.30;1.80;;;22.20;80.10;;;;;;5154070;27;45451;-74
2022/08/25 05:19:35;;;;;;;4.72;1.77;;;22.30;78.70;;;;;;5148549;27;45411;-74
2022/08/25 05:22:01;;;;;;;7.30;2.17;;;22.30;78.50;;;;;;5153160;27;45403;-75
2022/08/25 05:24:28;;;;;;;2.63;1.90;;;22.40;77.30;;;;;;5149754;27;47540;-74
2022/08/25 05:26:55;;;;;;;2.80;1.90;;;22.40;76.70;;;;;;5149588;27;45602;-74
2022/08/25 05:29:22;;;;;;;7.28;2.25;;;22.40;77.60;;;;;;5156159;27;45279;-74
2022/08/25 05:31:49;;;;;;;5.50;1.60;;;22.50;78.00;;;;;;5154200;27;45446;-74
2022/08/25 05:34:17;;;;;;;5.07;1.90;;;22.50;78.50;;;;;;5151232;27;46625;-74
2022/08/25 05:36:46;;;;;;;5.50;1.80;;;22.50;78.20;;;;;;5160224;27;45343;-75
2022/08/25 05:39:13;;;;;;;2.65;1.50;;;22.60;79.00;;;;;;5171317;27;45256;-74
2022/08/25 05:41:40;;;;;;;3.13;2.00;;;22.70;78.20;;;;;;5171158;27;45195;-74
2022/08/25 05:44:07;;;;;;;2.13;1.60;;;22.70;77.70;;;;;;5170669;27;46433;-76
2022/08/25 05:46:33;;;;;;;3.72;1.80;;;22.70;77.00;;;;;;5171114;27;45284;-74
2022/08/25 05:49:00;;;;;;;3.28;1.55;;;22.60;77.50;;;;;;5166456;27;45324;-74
2022/08/25 05:51:27;;;;;;;1.92;1.58;;;22.70;79.40;;;;;;5148765;27;45303;-74
2022/08/25 05:53:56;;;;;;;4.88;2.55;;;23.00;80.30;;;;;;5150108;27;46616;-74
2022/08/25 05:56:22;;;;;;;4.15;1.40;;;23.10;77.30;;;;;;5148773;27;45275;-74
2022/08/25 05:58:50;;;;;;;4.28;2.28;;;23.20;76.90;;;;;;5156859;27;45425;-74
2022/08/25 06:04:09;;;;;;;4.28;2.35;;;23.00;76.00;;;;;;5152469;27;45788;-74
2022/08/25 06:06:36;;;;;;;8.05;2.60;;;22.70;75.30;;;;;;5170380;27;45245;-74
2022/08/25 06:09:07;;;;;;;3.75;1.77;;;21.80;77.40;;;;;;5170658;27;45427;-74
2022/08/25 06:11:35;;;;;;;4.03;2.13;;;21.60;79.40;;;;;;5170327;27;45222;-74
2022/08/25 06:14:02;;;;;;;5.35;1.98;;;21.60;81.70;;;;;;5161991;27;47066;-75
2022/08/25 06:16:28;;;;;;;2.47;2.20;;;21.60;79.60;;;;;;5171297;27;45215;-75
2022/08/25 06:18:55;;;;;;;4.25;2.20;;;21.60;79.60;;;;;;5171681;27;45114;-75
2022/08/25 06:21:22;;;;;;;6.70;2.40;;;21.70;79.70;;;;;;5171531;27;45146;-75
2022/08/25 06:23:49;;;;;;;8.63;2.75;;;21.70;79.80;;;;;;5171228;27;46594;-75
2022/08/25 06:26:17;;;;;;;8.13;2.22;;;21.90;79.40;;;;;;5170909;27;45342;-75
2022/08/25 06:28:44;;;;;;;6.10;2.25;;;21.90;80.10;;;;;;5171164;27;45212;-76
2022/08/25 06:31:11;;;;;;;5.22;2.15;;;21.90;81.20;;;;;;5171412;27;45061;-75
2022/08/25 06:33:38;;;;;;;6.30;2.58;;;22.00;79.80;;;;;;5171072;27;47212;-75
2022/08/25 06:36:06;;;;;;;4.43;2.50;;;21.90;81.40;;;;;;5171142;27;45254;-76
2022/08/25 06:42:09;;;;;;;12.27;2.28;;;21.90;82.40;;;;;;5169195;27;45364;-76
2022/08/25 06:44:36;;;;;;;8.75;2.63;;;22.00;82.10;;;;;;5170821;27;46645;-76
2022/08/25 06:47:03;;;;;;;5.82;2.40;;;22.30;79.60;;;;;;5170732;27;45277;-76
2022/08/25 06:49:30;;;;;;;3.55;2.33;;;22.30;79.80;;;;;;5170903;27;45320;-76
2022/08/25 06:51:57;;;;;;;8.35;2.33;;;22.40;78.90;;;;;;5170918;27;45328;-76
2022/08/25 06:54:24;;;;;;;6.88;2.58;;;22.50;78.20;;;;;;5170698;27;45938;-75
2022/08/25 06:56:51;;;;;;;6.28;2.40;;;22.60;77.40;;;;;;5171129;27;45450;-76
2022/08/25 06:59:19;;;;;;;4.60;2.75;;;22.70;77.70;;;;;;5171210;27;45234;-76
2022/08/25 07:01:47;;;;;;;5.70;2.35;;;22.70;76.90;;;;;;5169662;27;45325;-76
2022/08/25 07:04:13;;;;;;;5.03;2.35;;;22.80;76.80;;;;;;5170307;27;46271;-76
2022/08/25 07:06:41;;;;;;;5.55;2.28;;;22.80;76.30;;;;;;5170520;27;45301;-76
2022/08/25 07:09:09;;;;;;;8.20;2.50;;;22.90;77.50;;;;;;5170671;27;45106;-75
2022/08/25 07:11:37;;;;;;;8.52;2.83;;;23.00;75.20;;;;;;5170358;27;45571;-75
2022/08/25 07:17:28;;;;;;;11.05;3.10;;;23.00;76.10;;;;;;5167239;27;45221;-76
2022/08/25 07:19:55;;;;;;;2.97;2.08;;;23.20;74.90;;;;;;5170352;27;45367;-76
2022/08/25 07:22:22;;;;;;;5.65;2.35;;;23.20;75.00;;;;;;5170920;27;45414;-76
2022/08/25 07:24:50;;;;;;;13.68;2.70;;;23.30;75.70;;;;;;5169678;27;45798;-76
2022/08/25 07:27:18;;;;;;;6.63;2.53;;;23.40;74.20;;;;;;5169822;27;45916;-76
2022/08/25 07:29:45;;;;;;;8.73;2.70;;;23.50;74.90;;;;;;5170398;27;45364;-76
2022/08/25 07:32:13;;;;;;;11.18;2.60;;;23.50;73.20;;;;;;5170195;27;45180;-76
2022/08/25 07:37:27;;;;;;;7.85;2.38;;;23.40;73.20;;;;;;5167149;27;45181;-76
2022/08/25 07:39:55;;;;;;;7.00;2.30;;;23.50;74.60;;;;;;5169877;27;45176;-76
2022/08/25 07:42:24;;;;;;;7.50;2.15;;;23.50;73.60;;;;;;5170422;27;45153;-76
2022/08/25 07:48:13;;;;;;;4.75;2.20;;;23.60;72.80;;;;;;5166719;27;45152;-76
2022/08/25 07:50:44;;;;;;;4.30;1.85;;;23.70;74.40;;;;;;5169711;27;45387;-76
2022/08/25 07:53:13;;;;;;;5.20;1.88;;;23.80;75.30;;;;;;5170237;27;45073;-76
2022/08/25 07:55:41;;;;;;;3.58;1.83;;;23.80;74.40;;;;;;5169285;27;46473;-76
2022/08/25 07:58:09;;;;;;;6.20;2.40;;;23.90;73.60;;;;;;5169470;27;45379;-76
2022/08/25 08:00:38;;;;;;;4.28;1.50;;;23.90;73.50;;;;;;5170079;27;45240;-76
2022/08/25 08:03:08;;;;;;;3.50;1.70;;;23.80;75.20;;;;;;5170189;27;45275;-76
2022/08/25 08:05:36;;;;;;;3.35;1.98;;;23.90;73.70;;;;;;5169329;27;45779;-76
2022/08/25 08:08:07;;;;;;;8.35;2.28;;;23.90;73.90;;;;;;5169531;27;45642;-77
2022/08/25 08:10:35;;;;;;;4.15;1.75;;;23.90;74.00;;;;;;5169827;27;45357;-76
2022/08/25 08:13:03;;;;;;;2.55;1.50;;;23.90;74.60;;;;;;5169167;27;45417;-76
2022/08/25 08:15:30;;;;;;;3.72;2.22;;;23.90;76.30;;;;;;5169421;27;47414;-76
2022/08/25 08:18:00;;;;;;;6.35;2.58;;;23.90;75.60;;;;;;5169098;27;45226;-76
2022/08/25 08:20:30;;;;;;;4.13;2.00;;;23.90;74.00;;;;;;5169248;27;45214;-76
2022/08/25 08:22:57;;;;;;;3.67;1.88;;;23.90;74.50;;;;;;5169542;27;45205;-76
2022/08/25 08:25:27;;;;;;;3.42;1.77;;;23.90;74.20;;;;;;5168569;27;49287;-76
2022/08/25 08:31:18;;;;;;;2.85;1.80;;;23.90;73.80;;;;;;5166257;27;45128;-76
2022/08/25 08:33:46;;;;;;;4.85;1.92;;;24.00;75.70;;;;;;5169347;27;45155;-76
2022/08/25 08:36:14;;;;;;;3.00;1.90;;;23.90;75.40;;;;;;5168762;27;46170;-76
2022/08/25 08:38:42;;;;;;;5.97;1.85;;;23.90;76.90;;;;;;5169484;27;45298;-76
2022/08/25 08:44:27;;;;;;;2.85;1.70;;;23.90;76.30;;;;;;5166145;27;45230;-76
2022/08/25 08:47:04;;;;;;;1.92;1.67;;;23.90;75.60;;;;;;5168729;27;46699;-76
2022/08/25 08:49:37;;;;;;;2.78;1.63;;;23.90;75.40;;;;;;5169014;27;45272;-76
2022/08/25 08:52:08;;;;;;;1.75;1.52;;;23.90;75.20;;;;;;5169461;27;45423;-76
2022/08/25 08:54:40;;;;;;;2.95;1.90;;;23.90;75.20;;;;;;5169177;27;45600;-77
2022/08/25 08:57:15;;;;;;;4.25;2.00;;;23.90;75.00;;;;;;5169413;27;45506;-76
2022/08/25 08:59:50;;;;;;;3.50;1.60;;;24.00;75.50;;;;;;5168563;27;45225;-76
2022/08/25 09:02:27;;;;;;;1.88;1.38;;;24.00;75.00;;;;;;5168660;27;45133;-76
2022/08/25 09:04:59;;;;;;;2.70;2.05;;;24.00;76.10;;;;;;5169062;27;45443;-76
2022/08/25 09:11:01;;;;;;;2.28;1.70;;;24.00;75.20;;;;;;5165816;27;45245;-75
2022/08/25 09:13:38;;;;;;;2.00;1.63;;;24.00;75.60;;;;;;5168861;27;45271;-75
2022/08/25 09:19:07;;;;;;;2.78;1.55;;;24.00;75.60;;;;;;5169097;27;45211;-75
2022/08/25 09:21:40;;;;;;;4.13;1.90;;;24.00;75.20;;;;;;5168936;27;45066;-76
2022/08/25 09:24:29;;;;;;;3.28;1.65;;;24.00;75.60;;;;;;5169090;27;45237;-76
2022/08/25 09:27:05;;;;;;;2.42;1.60;;;24.00;75.90;;;;;;5171585;27;45226;-76
2022/08/25 09:29:47;;;;;;;2.28;1.63;;;24.00;76.10;;;;;;5172648;27;47453;-76
2022/08/25 09:32:15;;;;;;;2.20;1.40;;;24.10;75.80;;;;;;5172303;27;45179;-76
2022/08/25 09:34:43;;;;;;;3.72;1.50;;;24.10;76.10;;;;;;5171902;27;45416;-76
2022/08/25 09:37:10;;;;;;;2.75;1.45;;;24.00;75.90;;;;;;5171947;27;45481;-76
2022/08/25 09:39:37;;;;;;;3.55;1.73;;;24.00;75.60;;;;;;5172139;27;46236;-76
2022/08/25 09:42:05;;;;;;;2.53;1.75;;;24.10;76.10;;;;;;5172246;27;45284;-76
2022/08/25 09:44:40;;;;;;;2.17;1.63;;;24.10;76.10;;;;;;5172011;27;45241;-76
2022/08/25 09:47:19;;;;;;;1.73;1.33;;;24.00;76.20;;;;;;5172245;27;45456;-76
2022/08/25 09:49:49;;;;;;;2.55;1.70;;;24.10;76.50;;;;;;5171918;27;47081;-76
2022/08/25 09:52:32;;;;;;;2.55;1.50;;;24.00;76.20;;;;;;5172177;27;45226;-76
2022/08/25 09:55:01;;;;;;;2.13;1.30;;;24.10;76.10;;;;;;5172166;27;45109;-76
2022/08/25 09:57:35;;;;;;;1.75;1.30;;;24.00;76.50;;;;;;5171569;27;45586;-76
2022/08/25 10:00:16;;;;;;;2.35;1.20;;;24.10;76.60;;;;;;5171684;27;48695;-76
2022/08/25 10:06:09;;;;;;;5.57;1.70;;;24.10;76.60;;;;;;5168586;27;45324;-76
2022/08/25 10:08:40;;;;;;;3.08;1.35;;;24.10;75.90;;;;;;5171742;27;45056;-76
2022/08/25 10:11:11;;;;;;;2.10;1.77;;;24.10;76.80;;;;;;5171852;27;45685;-76
2022/08/25 10:13:41;;;;;;;2.45;1.45;;;24.00;76.80;;;;;;5171406;27;45268;-74
2022/08/25 10:16:53;;;;;;;4.28;1.80;;;24.10;77.10;;;;;;5171699;27;45194;-79
2022/08/25 13:09:27;;;;;;;2.15;1.25;;;24.30;89.80;;;;;;5003248;28;45345;-76
2022/08/25 13:12:22;;;;;;;2.67;1.20;;;24.00;89.50;;;;;;5007591;28;45279;-76
2022/08/25 13:15:02;;;;;;;1.75;1.50;;;24.20;90.20;;;;;;5065738;28;46628;-76
2022/08/25 13:31:14;;;;;;;1.48;1.30;;;24.30;90.00;;;;;;4926564;28;45513;-72
2022/08/25 13:33:50;;;;;;;3.97;1.15;;;24.00;90.00;;;;;;4988603;28;45456;-74
2022/08/25 13:39:12;;;;;;;7.18;1.63;;;24.10;90.50;;;;;;5060363;28;45293;-75
2022/08/25 13:41:45;;;;;;;2.40;1.35;;;24.10;91.60;;;;;;5067873;28;45301;-74
2022/08/25 13:44:48;;;;;;;1.95;1.30;;;24.20;91.10;;;;;;5067505;28;45258;-75
2022/08/25 13:47:32;;;;;;;2.58;1.35;;;24.30;91.20;;;;;;5068141;28;45438;-75
2022/08/25 13:50:20;;;;;;;6.13;1.70;;;24.40;91.10;;;;;;5067497;28;47691;-74
2022/08/25 13:52:49;;;;;;;6.45;1.75;;;24.50;88.70;;;;;;5069404;28;45310;-74
2022/08/25 13:55:21;;;;;;;3.03;1.30;;;24.60;90.70;;;;;;5087432;28;45224;-74
2022/08/25 13:57:48;;;;;;;2.38;1.88;;;24.70;91.20;;;;;;5073823;28;45303;-74
2022/08/25 14:00:27;;;;;;;8.52;1.65;;;24.70;92.20;;;;;;5067298;28;47529;-74
2022/08/25 14:02:55;;;;;;;4.45;1.75;;;24.70;92.10;;;;;;5067113;28;45235;-74
2022/08/25 14:05:35;;;;;;;3.30;1.58;;;24.70;91.90;;;;;;5067042;28;45255;-74
2022/08/25 14:08:02;;;;;;;2.22;1.20;;;24.80;91.70;;;;;;5067785;28;45437;-74
2022/08/25 14:10:37;;;;;;;3.55;1.70;;;25.00;91.20;;;;;;5067262;28;46358;-74
2022/08/25 14:13:12;;;;;;;2.92;1.30;;;25.00;91.50;;;;;;5067724;28;45292;-75
2022/08/25 14:15:40;;;;;;;4.70;1.52;;;25.10;91.50;;;;;;5067713;28;45242;-74
2022/08/25 14:18:13;;;;;;;5.43;2.00;;;25.10;91.10;;;;;;5067709;28;45409;-75
2022/08/25 14:20:46;;;;;;;2.75;1.73;;;25.20;90.80;;;;;;5064565;28;45225;-75
2022/08/25 14:23:16;;;;;;;10.25;3.00;;;25.20;90.90;;;;;;5064293;28;45484;-69
2022/08/25 14:25:43;;;;;;;9.75;2.20;;;25.30;91.10;;;;;;5055479;28;45430;-69
2022/08/25 14:28:12;;;;;;;13.27;2.40;;;25.70;90.20;;;;;;5055369;28;45567;-68
2022/08/25 14:30:42;;;;;;;4.28;1.80;;;25.90;89.10;;;;;;5062478;28;46571;-69
2022/08/25 14:33:11;;;;;;;8.48;2.33;;;26.10;87.10;;;;;;5073911;28;45396;-68
2022/08/25 14:35:38;;;;;;;4.93;1.80;;;26.20;86.10;;;;;;5067204;28;45420;-69
2022/08/25 14:38:09;;;;;;;6.18;2.08;;;26.20;84.80;;;;;;5063138;28;45579;-68
2022/08/25 14:40:36;;;;;;;7.03;1.80;;;26.20;84.30;;;;;;5064108;28;46095;-68
2022/08/25 14:43:03;;;;;;;4.05;1.90;;;26.00;83.60;;;;;;5063681;28;45573;-69
2022/08/25 14:45:31;;;;;;;4.13;1.83;;;25.80;83.80;;;;;;5063506;28;45458;-69
2022/08/25 14:48:04;;;;;;;3.63;1.63;;;25.60;84.00;;;;;;5063983;28;45523;-68
2022/08/25 14:50:33;;;;;;;3.65;1.77;;;25.50;83.40;;;;;;5064758;28;45353;-68
2022/08/25 14:53:00;;;;;;;7.72;1.60;;;25.40;83.80;;;;;;5062990;28;45549;-69
2022/08/25 14:55:28;;;;;;;2.60;1.70;;;25.30;83.90;;;;;;5063590;28;45441;-69
2022/08/25 14:57:54;;;;;;;5.28;1.70;;;25.30;83.60;;;;;;5062119;28;45305;-69
2022/08/25 15:00:21;;;;;;;5.88;1.83;;;25.20;83.60;;;;;;5061936;28;46048;-69
2022/08/25 15:02:50;;;;;;;8.70;1.77;;;25.20;83.30;;;;;;5061602;28;45410;-68
2022/08/25 15:05:23;;;;;;;4.25;1.42;;;25.20;83.10;;;;;;5060057;28;45547;-68
2022/08/25 15:10:36;;;;;;;4.32;1.50;;;25.20;83.80;;;;;;5061412;28;45493;-70
2022/08/25 15:13:03;;;;;;;4.43;1.80;;;25.10;84.30;;;;;;5062534;28;45392;-69
2022/08/25 15:15:31;;;;;;;3.35;1.52;;;25.10;86.40;;;;;;5061571;28;45453;-70
2022/08/25 15:17:58;;;;;;;6.35;1.60;;;25.20;85.30;;;;;;5060553;28;45476;-69
2022/08/25 15:20:25;;;;;;;3.97;1.70;;;25.10;84.50;;;;;;5062595;28;46604;-69
2022/08/25 15:22:53;;;;;;;5.35;1.40;;;25.10;84.20;;;;;;5060994;28;46143;-69
2022/08/25 15:25:21;;;;;;;2.63;1.35;;;25.10;84.80;;;;;;5062211;28;45491;-69
2022/08/25 15:27:48;;;;;;;6.57;1.67;;;25.10;84.50;;;;;;5060799;28;45585;-69
2022/08/25 15:30:15;;;;;;;1.95;1.30;;;25.10;84.50;;;;;;5061238;28;48345;-69
2022/08/25 15:32:42;;;;;;;2.97;1.48;;;25.00;84.70;;;;;;5056355;28;45500;-69
2022/08/25 15:35:09;;;;;;;3.70;1.45;;;25.00;85.20;;;;;;5061709;28;45519;-69
2022/08/25 15:37:36;;;;;;;1.50;1.13;;;25.00;85.10;;;;;;5062247;28;45314;-69
2022/08/25 15:40:06;;;;;;;3.90;1.73;;;25.00;85.40;;;;;;5061680;28;47544;-70
2022/08/25 15:42:33;;;;;;;2.88;1.45;;;24.90;85.30;;;;;;5062740;28;45652;-69
2022/08/25 15:45:00;;;;;;;3.97;1.70;;;25.00;85.80;;;;;;5062716;28;45395;-70
2022/08/25 15:47:27;;;;;;;4.00;1.50;;;25.00;85.60;;;;;;5054841;28;45464;-70
2022/08/25 15:50:03;;;;;;;3.38;1.38;;;24.90;85.60;;;;;;5061515;28;46407;-69
2022/08/25 15:52:30;;;;;;;3.15;1.80;;;25.00;86.10;;;;;;5057075;28;45424;-70
2022/08/25 15:54:57;;;;;;;3.10;1.50;;;24.90;86.40;;;;;;5062453;28;45331;-69
2022/08/25 15:57:25;;;;;;;1.85;1.20;;;24.90;86.40;;;;;;5062176;28;45420;-70
2022/08/25 15:59:53;;;;;;;2.80;1.27;;;24.90;86.00;;;;;;5061276;28;47402;-69
2022/08/25 16:02:20;;;;;;;2.72;1.50;;;24.90;86.00;;;;;;5061946;28;45675;-69
2022/08/25 16:04:47;;;;;;;4.32;1.63;;;24.90;86.60;;;;;;5058374;28;45352;-69
2022/08/25 16:07:14;;;;;;;2.22;1.50;;;24.90;86.50;;;;;;5059719;28;45195;-70
2022/08/25 16:09:41;;;;;;;3.60;1.63;;;24.80;86.40;;;;;;5061216;28;47420;-69
2022/08/25 16:12:08;;;;;;;4.32;1.40;;;24.90;86.40;;;;;;5060929;28;46008;-69
2022/08/25 16:14:37;;;;;;;2.53;1.58;;;24.80;86.40;;;;;;5061855;28;45345;-70
2022/08/25 16:17:04;;;;;;;1.98;1.35;;;24.80;86.10;;;;;;5060831;28;45559;-69
2022/08/25 16:19:32;;;;;;;2.13;1.40;;;24.80;86.40;;;;;;5060905;28;45476;-69
2022/08/25 16:22:00;;;;;;;2.17;1.33;;;24.80;86.10;;;;;;5057243;28;45401;-69
2022/08/25 16:24:27;;;;;;;3.63;1.38;;;24.80;86.00;;;;;;5056078;28;45366;-69
2022/08/25 16:26:59;;;;;;;4.75;1.50;;;24.80;86.20;;;;;;5060526;28;45514;-69
2022/08/25 16:29:25;;;;;;;3.95;1.42;;;24.80;86.40;;;;;;5056313;28;47470;-69
2022/08/25 16:31:53;;;;;;;2.72;1.40;;;24.70;86.40;;;;;;5056957;28;45347;-69
2022/08/25 16:34:21;;;;;;;3.25;1.52;;;24.80;86.60;;;;;;5064045;28;45251;-69
2022/08/25 16:36:47;;;;;;;2.05;1.30;;;24.70;86.80;;;;;;5068382;28;45466;-69
2022/08/25 16:39:14;;;;;;;3.22;1.48;;;24.70;86.80;;;;;;5068738;28;46647;-69